Time;durP1;ratioP1;P1;durP2;ratioP2;P2;SDS_P1;SDS_P2;PMS_P1;PMS_P2;Temp;Humidity;BMP_temperature;BMP_pressure;BME280_temperature;BME280_humidity;BME280_pressure;Samples;Min_cycle;Max_cycle;Signal;HPM_P1;HPM_P2
2023/12/17 00:00:52;;;;;;;14.90;13.70;;;8.10;24.10;;;;;;4899976;29;20953;-53
2023/12/17 00:03:18;;;;;;;15.93;14.67;;;7.90;25.50;;;;;;4902457;29;20176;-54
2023/12/17 00:05:44;;;;;;;15.50;14.07;;;8.00;25.50;;;;;;4900191;29;20211;-55
2023/12/17 00:08:09;;;;;;;17.23;14.37;;;8.10;25.20;;;;;;4917349;29;20203;-53
2023/12/17 00:10:35;;;;;;;14.73;13.53;;;8.20;25.10;;;;;;4905525;29;20691;-52
2023/12/17 00:13:01;;;;;;;16.00;14.70;;;8.20;24.90;;;;;;4907831;29;20180;-53
2023/12/17 00:15:26;;;;;;;18.10;16.70;;;8.30;24.70;;;;;;4916850;29;20591;-57
2023/12/17 00:17:52;;;;;;;16.70;15.30;;;8.30;24.60;;;;;;4918694;29;20235;-55
2023/12/17 00:20:18;;;;;;;16.83;15.37;;;8.40;24.30;;;;;;4935605;29;20368;-54
2023/12/17 00:22:43;;;;;;;16.30;14.97;;;8.50;24.20;;;;;;4919212;29;20669;-53
2023/12/17 00:25:09;;;;;;;15.30;13.90;;;8.40;24.20;;;;;;4919070;29;20702;-56
2023/12/17 00:27:35;;;;;;;14.60;13.50;;;8.40;24.30;;;;;;4918130;29;20188;-53
2023/12/17 00:30:00;;;;;;;15.00;13.80;;;8.40;24.10;;;;;;4918610;29;20192;-55
2023/12/17 00:32:26;;;;;;;13.50;12.40;;;8.50;23.90;;;;;;4918731;29;20220;-55
2023/12/17 00:34:51;;;;;;;15.03;13.73;;;8.50;23.90;;;;;;4934194;29;20547;-56
2023/12/17 00:37:17;;;;;;;14.93;13.83;;;8.50;23.50;;;;;;4918528;29;20283;-54
2023/12/17 00:39:43;;;;;;;15.50;14.17;;;8.50;23.40;;;;;;4918367;29;20208;-55
2023/12/17 00:42:08;;;;;;;15.23;14.13;;;8.50;23.50;;;;;;4918102;29;20243;-54
2023/12/17 00:44:34;;;;;;;17.23;15.97;;;8.40;23.60;;;;;;4918712;29;20271;-54
2023/12/17 00:47:02;;;;;;;18.27;16.70;;;8.20;23.60;;;;;;4918177;29;20187;-54
2023/12/17 00:49:28;;;;;;;19.30;17.60;;;7.90;24.40;;;;;;4918062;29;20180;-53
2023/12/17 00:51:53;;;;;;;17.87;16.37;;;7.70;25.00;;;;;;4918253;29;20943;-52
2023/12/17 00:54:19;;;;;;;19.43;17.63;;;7.60;25.20;;;;;;4918523;29;20220;-55
2023/12/17 00:56:44;;;;;;;19.27;17.87;;;7.40;25.70;;;;;;4918106;29;20180;-55
2023/12/17 00:59:10;;;;;;;19.77;18.07;;;7.10;26.50;;;;;;4917892;29;20191;-53
2023/12/17 01:01:36;;;;;;;20.20;18.50;;;7.10;26.70;;;;;;4918090;29;20208;-55
2023/12/17 01:04:02;;;;;;;20.60;19.10;;;7.20;26.70;;;;;;4917809;29;20187;-52
2023/12/17 01:06:27;;;;;;;20.27;18.53;;;7.10;26.60;;;;;;4918233;29;20431;-54
2023/12/17 01:08:53;;;;;;;20.57;18.97;;;7.10;27.50;;;;;;4917981;29;20191;-53
2023/12/17 01:11:19;;;;;;;18.63;17.20;;;7.20;27.40;;;;;;4917621;29;20187;-56
2023/12/17 01:13:44;;;;;;;18.80;17.50;;;7.30;27.00;;;;;;4918112;29;20220;-51
2023/12/17 01:16:10;;;;;;;18.40;17.00;;;7.50;26.40;;;;;;4918045;29;20191;-55
2023/12/17 01:18:35;;;;;;;17.90;16.50;;;7.70;25.80;;;;;;4917115;29;20191;-55
2023/12/17 01:21:01;;;;;;;18.83;17.27;;;7.80;25.40;;;;;;4917751;29;20203;-54
2023/12/17 01:23:27;;;;;;;18.57;16.93;;;7.90;25.10;;;;;;4917951;29;20207;-54
2023/12/17 01:25:52;;;;;;;18.53;17.10;;;8.00;25.00;;;;;;4917420;29;20184;-54
2023/12/17 01:28:18;;;;;;;18.90;17.40;;;8.10;24.80;;;;;;4917563;29;20175;-55
2023/12/17 01:30:43;;;;;;;21.13;19.43;;;8.10;24.60;;;;;;4901918;29;20195;-54
2023/12/17 01:33:09;;;;;;;19.23;17.67;;;8.10;24.70;;;;;;4917206;29;20190;-54
2023/12/17 01:35:35;;;;;;;19.60;17.90;;;8.20;24.50;;;;;;4917610;29;20183;-53
2023/12/17 01:38:00;;;;;;;18.23;16.83;;;8.20;24.40;;;;;;4917221;29;20199;-53
2023/12/17 01:40:26;;;;;;;19.30;17.83;;;8.20;24.60;;;;;;4917275;29;20691;-56
2023/12/17 01:42:52;;;;;;;18.27;16.80;;;8.10;24.50;;;;;;4917661;29;20183;-53
2023/12/17 01:45:18;;;;;;;20.33;18.80;;;8.10;24.50;;;;;;4917704;29;20191;-52
2023/12/17 01:47:44;;;;;;;20.23;18.73;;;7.90;24.90;;;;;;4916737;29;20479;-54
2023/12/17 01:50:10;;;;;;;20.27;18.70;;;7.50;25.50;;;;;;4917111;29;20425;-53
2023/12/17 01:52:36;;;;;;;20.20;18.70;;;7.40;26.30;;;;;;4934271;29;20420;-51
2023/12/17 01:55:03;;;;;;;22.13;20.23;;;7.50;26.20;;;;;;4916386;29;20575;-48
2023/12/17 01:57:29;;;;;;;20.47;18.73;;;7.50;26.40;;;;;;4916525;29;20427;-48
2023/12/17 01:59:56;;;;;;;20.63;19.20;;;7.50;26.10;;;;;;4916552;29;20467;-48
2023/12/17 02:02:22;;;;;;;20.70;19.23;;;7.30;26.60;;;;;;4916487;29;20420;-50
2023/12/17 02:04:48;;;;;;;19.23;17.73;;;7.30;26.60;;;;;;4916972;29;20429;-50
2023/12/17 02:07:13;;;;;;;20.80;18.90;;;7.50;26.40;;;;;;4916575;29;20211;-47
2023/12/17 02:09:40;;;;;;;18.43;17.03;;;7.50;25.60;;;;;;4915932;29;20524;-48
2023/12/17 02:12:06;;;;;;;18.07;16.77;;;7.60;25.50;;;;;;4911498;29;20560;-48
2023/12/17 02:14:31;;;;;;;19.80;18.20;;;7.70;25.30;;;;;;4913615;29;20425;-48
2023/12/17 02:16:57;;;;;;;18.33;16.90;;;7.80;25.00;;;;;;4911868;29;20199;-49
2023/12/17 02:19:22;;;;;;;18.10;16.70;;;7.80;24.70;;;;;;4897605;29;20379;-49
2023/12/17 02:21:48;;;;;;;17.60;16.40;;;7.90;24.50;;;;;;4913014;29;20192;-48
2023/12/17 02:24:14;;;;;;;16.93;15.50;;;7.90;25.00;;;;;;4897067;29;20705;-47
2023/12/17 02:26:43;;;;;;;18.20;16.90;;;8.00;24.10;;;;;;4897618;29;20177;-51
2023/12/17 02:29:08;;;;;;;20.60;18.90;;;8.00;24.00;;;;;;4897209;29;20665;-48
2023/12/17 02:31:34;;;;;;;17.83;16.60;;;8.00;24.10;;;;;;4896923;29;20500;-49
2023/12/17 02:33:59;;;;;;;20.40;18.90;;;7.90;24.70;;;;;;4901925;29;20237;-55
2023/12/17 02:36:25;;;;;;;20.23;18.80;;;7.60;25.00;;;;;;4902075;29;20235;-54
2023/12/17 02:38:51;;;;;;;21.03;19.37;;;7.30;25.90;;;;;;4901590;29;20211;-54
2023/12/17 02:41:16;;;;;;;21.37;19.80;;;7.10;26.30;;;;;;4901598;29;20287;-55
2023/12/17 02:43:42;;;;;;;21.00;19.50;;;7.10;26.40;;;;;;4901905;29;20185;-53
2023/12/17 02:46:07;;;;;;;20.10;18.40;;;6.80;26.90;;;;;;4903118;29;20177;-55
2023/12/17 02:48:33;;;;;;;20.40;18.90;;;6.60;28.20;;;;;;4903114;29;20176;-55
2023/12/17 02:50:59;;;;;;;19.53;18.03;;;6.80;28.10;;;;;;4903104;29;20191;-55
2023/12/17 02:53:24;;;;;;;19.53;18.13;;;6.80;27.70;;;;;;4917689;29;20195;-52
2023/12/17 02:55:50;;;;;;;20.27;18.33;;;6.80;28.00;;;;;;4917094;29;20275;-51
2023/12/17 02:58:15;;;;;;;19.27;17.77;;;6.80;27.30;;;;;;4901229;29;20181;-55
2023/12/17 03:00:41;;;;;;;18.93;17.53;;;6.60;28.00;;;;;;4901244;29;20244;-52
2023/12/17 03:03:07;;;;;;;17.67;16.33;;;6.80;28.20;;;;;;4900448;29;20181;-53
2023/12/17 03:05:32;;;;;;;17.03;15.73;;;7.00;27.70;;;;;;4901472;29;20187;-52
2023/12/17 03:07:58;;;;;;;18.50;17.10;;;7.20;27.00;;;;;;4900620;29;20172;-49
2023/12/17 03:10:23;;;;;;;18.53;17.23;;;7.30;26.40;;;;;;4900388;29;20298;-48
2023/12/17 03:12:49;;;;;;;17.43;16.10;;;7.50;26.10;;;;;;4901213;29;20657;-51
2023/12/17 03:15:15;;;;;;;17.67;16.37;;;7.60;25.80;;;;;;4900975;29;20216;-49
2023/12/17 03:17:40;;;;;;;16.80;15.60;;;7.70;25.50;;;;;;4899876;29;20184;-50
2023/12/17 03:20:07;;;;;;;17.97;16.80;;;7.70;25.30;;;;;;4916275;29;20216;-50
2023/12/17 03:22:32;;;;;;;16.27;14.87;;;7.70;25.80;;;;;;4900906;29;20286;-48
2023/12/17 03:24:58;;;;;;;15.00;13.57;;;7.60;25.30;;;;;;4900402;29;20507;-54
2023/12/17 03:27:23;;;;;;;16.27;15.07;;;7.50;24.60;;;;;;4916689;29;20176;-53
2023/12/17 03:29:50;;;;;;;17.30;16.10;;;7.30;25.60;;;;;;4900841;29;20599;-55
2023/12/17 03:32:15;;;;;;;17.30;16.00;;;7.30;25.80;;;;;;4900546;29;20189;-53
2023/12/17 03:34:41;;;;;;;19.00;17.50;;;7.30;25.50;;;;;;4901080;29;20436;-53
2023/12/17 03:37:07;;;;;;;17.93;16.53;;;7.00;26.50;;;;;;4916273;29;20176;-52
2023/12/17 03:39:32;;;;;;;16.40;15.30;;;6.70;27.50;;;;;;4900329;29;20207;-53
2023/12/17 03:41:58;;;;;;;17.90;16.50;;;6.80;27.50;;;;;;4900880;29;20548;-54
2023/12/17 03:44:23;;;;;;;17.13;15.70;;;7.00;27.00;;;;;;4899742;29;20177;-52
2023/12/17 03:46:49;;;;;;;15.43;14.37;;;7.10;26.60;;;;;;4900457;29;20173;-55
2023/12/17 03:49:15;;;;;;;16.03;14.90;;;7.20;25.90;;;;;;4900389;29;20271;-56
2023/12/17 03:51:40;;;;;;;15.80;14.50;;;7.10;25.80;;;;;;4900650;29;20188;-50
2023/12/17 03:54:06;;;;;;;14.80;13.80;;;7.10;25.50;;;;;;4884774;29;20212;-50
2023/12/17 03:56:35;;;;;;;15.37;14.27;;;7.00;25.60;;;;;;4900776;29;20224;-52
2023/12/17 03:59:01;;;;;;;15.33;14.23;;;6.90;26.40;;;;;;4914654;29;20185;-55
2023/12/17 04:01:26;;;;;;;14.77;13.80;;;6.80;26.80;;;;;;4917193;29;20453;-50
2023/12/17 04:03:52;;;;;;;15.43;14.33;;;6.90;26.50;;;;;;4900527;29;20180;-51
2023/12/17 04:06:18;;;;;;;15.97;14.87;;;7.10;26.30;;;;;;4900510;29;20185;-54
2023/12/17 04:08:43;;;;;;;16.70;15.50;;;7.20;26.10;;;;;;4899545;29;20244;-52
2023/12/17 04:11:09;;;;;;;16.37;15.27;;;7.30;25.90;;;;;;4900208;29;20197;-53
2023/12/17 04:13:34;;;;;;;16.30;14.97;;;7.30;25.60;;;;;;4915847;29;20291;-53
2023/12/17 04:16:00;;;;;;;15.50;14.17;;;7.40;25.40;;;;;;4899894;29;20189;-51
2023/12/17 04:18:26;;;;;;;15.87;14.77;;;7.60;24.90;;;;;;4900070;29;20592;-52
2023/12/17 04:20:51;;;;;;;14.80;13.90;;;7.50;24.70;;;;;;4899100;29;20279;-50
2023/12/17 04:23:17;;;;;;;13.70;12.70;;;7.50;24.90;;;;;;4899318;29;20677;-51
2023/12/17 04:25:42;;;;;;;14.60;13.70;;;7.40;25.00;;;;;;4899725;29;20583;-49
2023/12/17 04:28:08;;;;;;;13.90;12.80;;;7.50;25.30;;;;;;4899294;29;20189;-47
2023/12/17 04:30:34;;;;;;;15.17;14.10;;;7.60;24.50;;;;;;4898825;29;20401;-48
2023/12/17 04:32:59;;;;;;;13.70;12.87;;;7.80;24.00;;;;;;4915126;29;20189;-51
2023/12/17 04:35:26;;;;;;;12.87;12.00;;;8.00;23.60;;;;;;4899704;29;20195;-46
2023/12/17 04:37:51;;;;;;;13.77;12.80;;;8.10;23.40;;;;;;4882724;29;20213;-48
2023/12/17 04:40:17;;;;;;;15.27;13.90;;;8.10;22.80;;;;;;4899237;29;20480;-47
2023/12/17 04:42:44;;;;;;;14.63;13.63;;;8.10;22.70;;;;;;4915070;29;20196;-48
2023/12/17 04:45:09;;;;;;;13.40;12.40;;;7.90;23.40;;;;;;4883364;29;20481;-50
2023/12/17 04:47:35;;;;;;;13.90;13.03;;;7.90;23.60;;;;;;4898942;29;20180;-49
2023/12/17 04:50:01;;;;;;;12.63;11.77;;;8.00;23.40;;;;;;4898968;29;20192;-47
2023/12/17 04:52:26;;;;;;;13.13;12.23;;;8.00;22.70;;;;;;4898702;29;20561;-47
2023/12/17 04:54:52;;;;;;;13.80;13.00;;;7.60;23.30;;;;;;4914678;29;20207;-47
2023/12/17 04:57:17;;;;;;;13.70;12.70;;;7.40;23.90;;;;;;4914501;29;20195;-48
2023/12/17 04:59:43;;;;;;;12.50;11.77;;;7.30;24.70;;;;;;4898402;29;20626;-50
2023/12/17 05:02:09;;;;;;;15.00;13.87;;;7.30;24.50;;;;;;4916111;29;20185;-47
2023/12/17 05:04:34;;;;;;;13.70;12.80;;;7.10;25.00;;;;;;4899281;29;20188;-54
2023/12/17 05:07:00;;;;;;;13.33;12.43;;;7.20;25.40;;;;;;4914402;29;20187;-52
2023/12/17 05:09:25;;;;;;;12.97;12.07;;;7.40;24.90;;;;;;4899089;29;20250;-46
2023/12/17 05:11:51;;;;;;;14.60;13.50;;;7.50;24.30;;;;;;4898654;29;20184;-47
2023/12/17 05:14:17;;;;;;;13.20;12.40;;;7.50;24.10;;;;;;4915658;29;20177;-51
2023/12/17 05:16:42;;;;;;;13.67;12.77;;;7.20;25.10;;;;;;4898628;29;20276;-49
2023/12/17 05:19:09;;;;;;;13.90;13.00;;;7.10;25.50;;;;;;4915033;29;20181;-48
2023/12/17 05:21:35;;;;;;;14.57;13.40;;;7.00;25.40;;;;;;4898466;29;20219;-50
2023/12/17 05:24:02;;;;;;;13.43;12.53;;;6.80;26.10;;;;;;4897820;29;20436;-46
2023/12/17 05:26:28;;;;;;;13.77;12.80;;;6.80;25.80;;;;;;4898700;29;20184;-46
2023/12/17 05:28:54;;;;;;;12.93;12.23;;;6.70;26.30;;;;;;4896502;29;20431;-48
2023/12/17 05:31:19;;;;;;;14.57;13.67;;;6.70;26.10;;;;;;4897779;29;20189;-47
2023/12/17 05:33:46;;;;;;;13.73;12.73;;;6.30;27.10;;;;;;4897936;29;20197;-50
2023/12/17 05:36:12;;;;;;;14.77;13.77;;;6.20;27.20;;;;;;4898397;29;20184;-50
2023/12/17 05:38:38;;;;;;;13.80;12.90;;;6.30;27.40;;;;;;4897029;29;20545;-50
2023/12/17 05:41:05;;;;;;;14.27;13.37;;;6.20;27.20;;;;;;4897777;29;20649;-51
2023/12/17 05:43:30;;;;;;;14.00;13.10;;;5.90;28.20;;;;;;4898131;29;20184;-49
2023/12/17 05:45:56;;;;;;;13.67;12.73;;;5.90;28.70;;;;;;4897714;29;20771;-51
2023/12/17 05:48:21;;;;;;;13.43;12.63;;;6.00;28.60;;;;;;4897706;29;20634;-50
2023/12/17 05:50:47;;;;;;;13.63;12.83;;;6.10;28.40;;;;;;4897875;29;20184;-54
2023/12/17 05:53:13;;;;;;;13.93;13.03;;;6.20;28.10;;;;;;4897615;29;20188;-55
2023/12/17 05:55:39;;;;;;;13.33;12.50;;;6.30;27.80;;;;;;4898383;29;20582;-52
2023/12/17 05:58:04;;;;;;;14.83;14.03;;;6.60;27.40;;;;;;4913085;29;20562;-50
2023/12/17 06:00:30;;;;;;;15.00;13.87;;;6.70;26.80;;;;;;4897334;29;20212;-48
2023/12/17 06:02:55;;;;;;;13.83;12.93;;;6.70;26.70;;;;;;4898041;29;20181;-58
2023/12/17 06:05:21;;;;;;;14.10;12.93;;;6.70;26.70;;;;;;4898140;29;20181;-57
2023/12/17 06:07:47;;;;;;;14.20;13.30;;;6.80;26.10;;;;;;4896786;29;20587;-57
2023/12/17 06:10:13;;;;;;;13.30;12.50;;;6.90;26.60;;;;;;4898154;29;20180;-57
2023/12/17 06:12:38;;;;;;;15.13;14.20;;;7.00;26.00;;;;;;4898325;29;20189;-57
2023/12/17 06:15:05;;;;;;;15.97;14.87;;;7.10;24.90;;;;;;4914747;29;20564;-57
2023/12/17 06:17:31;;;;;;;14.90;13.90;;;6.80;25.60;;;;;;4897740;29;20615;-57
2023/12/17 06:19:56;;;;;;;16.07;14.97;;;6.50;25.90;;;;;;4897640;29;20552;-57
2023/12/17 06:22:24;;;;;;;14.53;13.53;;;6.20;27.10;;;;;;4897928;29;20537;-56
2023/12/17 06:24:50;;;;;;;15.37;14.37;;;6.20;27.40;;;;;;4898252;29;20210;-57
2023/12/17 06:27:16;;;;;;;16.30;15.10;;;6.20;27.10;;;;;;4897921;29;20534;-57
2023/12/17 06:29:42;;;;;;;15.63;14.60;;;6.20;27.00;;;;;;4897412;29;20275;-57
2023/12/17 06:32:08;;;;;;;16.23;15.03;;;6.20;27.30;;;;;;4897799;29;20997;-57
2023/12/17 06:34:34;;;;;;;14.83;13.83;;;6.10;27.30;;;;;;4898186;29;20746;-57
2023/12/17 06:37:00;;;;;;;16.10;14.90;;;6.10;27.10;;;;;;4897304;29;20420;-58
2023/12/17 06:39:26;;;;;;;15.80;14.80;;;6.20;27.00;;;;;;4897596;29;20914;-48
2023/12/17 06:41:52;;;;;;;15.53;14.53;;;6.20;26.70;;;;;;4897393;29;20551;-49
2023/12/17 06:44:18;;;;;;;16.60;15.30;;;6.20;26.90;;;;;;4896973;29;20520;-47
2023/12/17 06:46:43;;;;;;;16.77;15.57;;;6.20;26.70;;;;;;4897891;29;20236;-51
2023/12/17 06:49:10;;;;;;;15.33;14.30;;;6.10;27.00;;;;;;4897291;29;20548;-50
2023/12/17 06:51:39;;;;;;;16.37;14.93;;;6.30;26.80;;;;;;4896755;29;20224;-49
2023/12/17 06:54:06;;;;;;;16.10;15.00;;;6.30;26.10;;;;;;4897374;29;20435;-49
2023/12/17 06:56:31;;;;;;;16.13;15.13;;;6.30;26.20;;;;;;4897883;29;20697;-58
2023/12/17 06:58:57;;;;;;;16.80;15.80;;;6.30;25.90;;;;;;4896978;29;20439;-58
2023/12/17 07:01:22;;;;;;;16.20;15.20;;;6.20;25.90;;;;;;4897816;29;20725;-57
2023/12/17 07:03:49;;;;;;;16.43;15.27;;;6.00;26.40;;;;;;4897867;29;20221;-52
2023/12/17 07:06:14;;;;;;;15.87;14.87;;;5.90;27.30;;;;;;4897506;29;20287;-53
2023/12/17 07:08:41;;;;;;;15.57;14.47;;;6.00;27.10;;;;;;4897730;29;21103;-53
2023/12/17 07:11:07;;;;;;;14.87;13.77;;;6.30;26.40;;;;;;4897851;29;20181;-50
2023/12/17 07:13:33;;;;;;;15.37;14.27;;;6.30;25.80;;;;;;4897508;29;20784;-52
2023/12/17 07:15:58;;;;;;;16.63;15.57;;;6.30;26.30;;;;;;4898045;29;20435;-51
2023/12/17 07:18:24;;;;;;;15.23;14.23;;;6.30;26.00;;;;;;4898467;29;20224;-49
2023/12/17 07:20:55;;;;;;;15.30;14.30;;;6.30;26.40;;;;;;4901614;29;20224;-58
2023/12/17 07:23:24;;;;;;;15.13;13.97;;;6.30;27.10;;;;;;4917132;29;20193;-58
2023/12/17 07:25:50;;;;;;;16.33;15.27;;;6.40;26.90;;;;;;4919069;29;20421;-51
2023/12/17 07:28:15;;;;;;;15.27;14.37;;;6.60;26.00;;;;;;4906731;29;21476;-47
2023/12/17 07:30:41;;;;;;;15.20;14.10;;;6.80;25.70;;;;;;4909416;29;20180;-52
2023/12/17 07:33:08;;;;;;;17.13;16.03;;;6.90;25.20;;;;;;4909628;29;20540;-50
2023/12/17 07:35:34;;;;;;;16.50;15.50;;;6.70;24.90;;;;;;4919609;29;20219;-51
2023/12/17 07:37:59;;;;;;;16.70;15.60;;;6.70;25.40;;;;;;4918898;29;20511;-49
2023/12/17 07:40:25;;;;;;;15.97;14.87;;;6.70;25.10;;;;;;4918898;29;20208;-48
2023/12/17 07:42:51;;;;;;;17.77;16.67;;;6.60;25.40;;;;;;4918655;29;20267;-48
2023/12/17 07:45:16;;;;;;;17.23;16.03;;;6.40;26.10;;;;;;4919186;29;20180;-48
2023/12/17 07:47:42;;;;;;;16.40;15.40;;;6.20;26.60;;;;;;4918973;29;20176;-57
2023/12/17 07:50:08;;;;;;;15.93;14.93;;;6.00;26.90;;;;;;4918657;29;20188;-57
2023/12/17 07:52:34;;;;;;;15.83;14.83;;;6.00;27.40;;;;;;4919400;29;20188;-57
2023/12/17 07:55:00;;;;;;;16.40;15.30;;;6.00;27.90;;;;;;4919287;29;20431;-56
2023/12/17 07:57:25;;;;;;;16.77;15.67;;;6.30;27.40;;;;;;4918607;29;20431;-56
2023/12/17 07:59:51;;;;;;;18.27;16.87;;;6.50;26.80;;;;;;4918854;29;20264;-56
2023/12/17 08:02:17;;;;;;;15.90;14.80;;;6.50;26.20;;;;;;4911924;29;20640;-57
2023/12/17 08:04:43;;;;;;;14.57;13.67;;;6.40;26.30;;;;;;4900018;29;20549;-56
2023/12/17 08:07:10;;;;;;;16.13;15.10;;;6.40;27.00;;;;;;4902190;29;20457;-57
2023/12/17 08:09:36;;;;;;;15.03;14.13;;;6.60;27.50;;;;;;4907898;29;20492;-57
2023/12/17 08:12:03;;;;;;;15.53;14.33;;;6.80;27.50;;;;;;4916009;29;20420;-56
2023/12/17 08:14:29;;;;;;;15.70;14.60;;;6.80;26.50;;;;;;4936492;29;20408;-56
2023/12/17 08:16:55;;;;;;;15.27;14.27;;;6.80;27.30;;;;;;4919049;29;20435;-56
2023/12/17 08:19:20;;;;;;;12.70;11.90;;;6.90;27.00;;;;;;4918133;29;20420;-56
2023/12/17 08:21:46;;;;;;;14.70;13.70;;;7.00;27.20;;;;;;4911496;29;20209;-58
2023/12/17 08:24:11;;;;;;;16.50;15.40;;;7.20;27.70;;;;;;4900986;29;20200;-56
2023/12/17 08:26:37;;;;;;;15.33;14.33;;;7.20;26.60;;;;;;4909922;29;20207;-56
2023/12/17 08:29:03;;;;;;;15.53;14.53;;;7.00;26.10;;;;;;4901310;29;20192;-56
2023/12/17 08:31:29;;;;;;;14.30;13.40;;;6.80;26.20;;;;;;4915942;29;20187;-57
2023/12/17 08:33:54;;;;;;;23.10;21.70;;;6.70;27.00;;;;;;4900134;29;20524;-57
2023/12/17 08:36:22;;;;;;;14.80;13.90;;;6.70;26.10;;;;;;4915116;29;20462;-56
2023/12/17 08:38:49;;;;;;;13.93;13.10;;;6.70;26.70;;;;;;4912673;29;20315;-57
2023/12/17 08:41:14;;;;;;;14.73;13.83;;;6.80;26.30;;;;;;4898926;29;20475;-51
2023/12/17 08:43:40;;;;;;;13.53;12.73;;;6.80;25.70;;;;;;4906978;29;20424;-47
2023/12/17 08:46:06;;;;;;;15.23;14.23;;;6.70;26.10;;;;;;4906928;29;20638;-49
2023/12/17 08:48:32;;;;;;;15.60;14.67;;;6.80;26.00;;;;;;4909293;29;20522;-50
2023/12/17 08:50:57;;;;;;;14.77;13.73;;;6.70;25.90;;;;;;4893405;29;20432;-48
2023/12/17 08:53:26;;;;;;;15.33;14.33;;;6.50;26.40;;;;;;4904944;29;20608;-52
2023/12/17 08:55:52;;;;;;;14.87;13.97;;;6.70;26.80;;;;;;4903085;29;20191;-49
2023/12/17 08:58:17;;;;;;;15.60;14.57;;;7.00;25.90;;;;;;4905898;29;20817;-52
2023/12/17 09:00:43;;;;;;;15.10;14.10;;;7.20;25.80;;;;;;4911881;29;20566;-50
2023/12/17 09:03:09;;;;;;;16.23;15.13;;;7.40;25.30;;;;;;4913350;29;20260;-51
2023/12/17 09:05:37;;;;;;;14.87;13.63;;;7.60;24.80;;;;;;4898009;29;20193;-50
2023/12/17 09:08:03;;;;;;;15.00;13.97;;;7.80;24.40;;;;;;4910767;29;20224;-50
2023/12/17 09:10:28;;;;;;;14.80;13.90;;;7.70;24.20;;;;;;4898430;29;20476;-51
2023/12/17 09:12:57;;;;;;;15.97;14.97;;;7.70;24.40;;;;;;4902621;29;20197;-49
2023/12/17 09:15:23;;;;;;;15.67;14.67;;;7.90;24.10;;;;;;4914372;29;20378;-50
2023/12/17 09:17:50;;;;;;;15.70;14.70;;;7.60;24.00;;;;;;4909213;29;20443;-49
2023/12/17 09:20:15;;;;;;;15.70;14.70;;;7.20;25.00;;;;;;4897551;29;20977;-50
2023/12/17 09:22:41;;;;;;;15.80;14.80;;;7.10;25.50;;;;;;4897826;29;20440;-48
2023/12/17 09:25:07;;;;;;;16.07;14.83;;;7.00;26.10;;;;;;4898496;29;20181;-49
2023/12/17 09:27:33;;;;;;;15.27;14.33;;;7.00;26.00;;;;;;4897554;29;20606;-52
2023/12/17 09:29:58;;;;;;;15.60;14.60;;;7.20;26.20;;;;;;4896747;29;20429;-52
2023/12/17 09:32:24;;;;;;;16.27;15.27;;;7.40;25.70;;;;;;4899113;29;20189;-49
2023/12/17 09:34:49;;;;;;;15.43;14.33;;;7.50;25.30;;;;;;4897397;29;20193;-50
2023/12/17 09:37:15;;;;;;;14.97;13.87;;;7.60;25.00;;;;;;4918156;29;20195;-51
2023/12/17 09:39:41;;;;;;;15.13;14.20;;;7.50;25.50;;;;;;4897134;29;20208;-49
2023/12/17 09:42:06;;;;;;;14.53;13.63;;;7.60;25.30;;;;;;4895845;29;20185;-49
2023/12/17 09:44:32;;;;;;;14.20;13.23;;;7.60;25.20;;;;;;4898023;29;20188;-49
2023/12/17 09:46:58;;;;;;;15.53;14.53;;;7.50;25.00;;;;;;4897511;29;20272;-50
2023/12/17 09:49:24;;;;;;;15.10;14.10;;;7.60;25.50;;;;;;4897097;29;20429;-52
2023/12/17 09:52:05;;;;;;;14.40;13.50;;;7.70;25.10;;;;;;4899457;29;20439;-49
2023/12/17 09:54:30;;;;;;;14.10;13.30;;;7.60;24.30;;;;;;4906545;29;20191;-50
2023/12/17 09:56:57;;;;;;;16.47;15.57;;;7.40;24.90;;;;;;4899054;29;20420;-49
2023/12/17 09:59:23;;;;;;;14.67;13.77;;;7.30;25.90;;;;;;4896828;29;20248;-51
2023/12/17 10:01:48;;;;;;;14.90;14.00;;;7.40;25.50;;;;;;4897194;29;20468;-48
2023/12/17 10:04:14;;;;;;;15.10;14.10;;;7.50;25.40;;;;;;4896629;29;20184;-49
2023/12/17 10:06:40;;;;;;;14.07;13.17;;;7.60;25.60;;;;;;4897474;29;20177;-50
2023/12/17 10:09:08;;;;;;;15.37;14.17;;;7.60;24.80;;;;;;4896372;29;20185;-51
2023/12/17 10:11:33;;;;;;;16.30;15.23;;;7.50;25.20;;;;;;4896349;29;20451;-52
2023/12/17 10:14:00;;;;;;;16.03;15.13;;;7.50;25.30;;;;;;4897272;29;20417;-49
2023/12/17 10:16:26;;;;;;;15.10;14.10;;;7.60;25.50;;;;;;4897920;29;20188;-50
2023/12/17 10:18:52;;;;;;;15.10;14.10;;;7.80;25.50;;;;;;4896546;29;20432;-49
2023/12/17 10:21:18;;;;;;;14.30;13.37;;;7.90;24.80;;;;;;4898195;29;20868;-49
2023/12/17 10:23:48;;;;;;;14.50;13.50;;;8.10;24.40;;;;;;4901268;29;20189;-48
2023/12/17 10:26:13;;;;;;;15.53;14.50;;;8.30;24.00;;;;;;4896932;29;20437;-47
2023/12/17 10:28:47;;;;;;;17.17;15.60;;;8.50;23.40;;;;;;4897298;29;20428;-50
2023/12/17 10:31:17;;;;;;;15.93;14.83;;;8.60;23.00;;;;;;4897146;29;20665;-50
2023/12/17 10:33:57;;;;;;;17.90;16.40;;;8.70;23.10;;;;;;4907785;29;20433;-51
2023/12/17 10:36:24;;;;;;;15.73;14.63;;;8.80;23.20;;;;;;4906683;29;20527;-48
2023/12/17 10:38:50;;;;;;;15.53;14.53;;;8.90;22.50;;;;;;4896509;29;20949;-51
2023/12/17 10:41:18;;;;;;;17.07;15.83;;;8.80;23.10;;;;;;4897602;29;20457;-48
2023/12/17 10:43:44;;;;;;;15.03;14.07;;;8.70;22.60;;;;;;4894535;29;20780;-48
2023/12/17 10:46:13;;;;;;;14.90;14.00;;;8.60;23.00;;;;;;4897133;29;20511;-50
2023/12/17 10:48:39;;;;;;;16.63;15.50;;;8.60;23.50;;;;;;4896041;29;20424;-48
2023/12/17 10:51:05;;;;;;;15.47;14.43;;;8.70;23.10;;;;;;4895979;29;20432;-48
2023/12/17 10:53:31;;;;;;;15.03;13.83;;;8.80;22.70;;;;;;4914921;29;20428;-51
2023/12/17 10:55:57;;;;;;;14.00;13.20;;;8.70;23.10;;;;;;4900365;29;20818;-54
2023/12/17 10:58:24;;;;;;;15.10;14.10;;;8.80;23.20;;;;;;4900644;29;20239;-52
2023/12/17 11:00:50;;;;;;;15.13;14.17;;;8.90;23.10;;;;;;4900794;29;20504;-51
2023/12/17 11:03:17;;;;;;;15.03;13.97;;;8.90;22.70;;;;;;4900537;29;20818;-51
2023/12/17 11:06:04;;;;;;;13.07;12.30;;;8.80;22.60;;;;;;4900710;29;20429;-52
2023/12/17 11:08:30;;;;;;;15.67;14.77;;;8.60;23.00;;;;;;4900607;29;20790;-50
2023/12/17 11:10:57;;;;;;;15.80;14.80;;;8.70;23.10;;;;;;4899937;29;20425;-50
2023/12/17 11:13:23;;;;;;;15.97;15.00;;;8.80;23.20;;;;;;4900975;29;20823;-52
2023/12/17 11:15:49;;;;;;;15.10;13.93;;;8.90;23.20;;;;;;4900808;29;20496;-49
2023/12/17 11:18:15;;;;;;;14.93;14.00;;;9.00;23.30;;;;;;4915378;29;20894;-51
2023/12/17 11:20:44;;;;;;;16.13;15.13;;;9.10;23.00;;;;;;4899772;29;20216;-51
2023/12/17 11:23:09;;;;;;;16.23;15.23;;;9.20;22.40;;;;;;4900569;29;20515;-48
2023/12/17 11:25:35;;;;;;;16.07;14.97;;;9.30;22.40;;;;;;4900020;29;20879;-48
2023/12/17 11:28:01;;;;;;;15.23;14.27;;;9.20;22.60;;;;;;4900176;29;20280;-49
2023/12/17 11:30:32;;;;;;;16.03;14.83;;;9.20;22.70;;;;;;4900214;29;20185;-50
2023/12/17 11:32:59;;;;;;;16.10;15.17;;;9.20;22.10;;;;;;4900014;29;20424;-48
2023/12/17 11:35:27;;;;;;;14.97;13.97;;;9.20;23.00;;;;;;4900104;29;20797;-50
2023/12/17 11:37:53;;;;;;;15.40;14.30;;;9.20;22.60;;;;;;4899918;29;20811;-50
2023/12/17 11:40:20;;;;;;;15.13;14.13;;;9.30;22.70;;;;;;4899346;29;20483;-50
2023/12/17 11:42:57;;;;;;;16.20;15.20;;;9.20;22.50;;;;;;4900453;29;20239;-49
2023/12/17 11:45:36;;;;;;;15.80;14.70;;;9.30;22.90;;;;;;4900396;29;20490;-52
2023/12/17 11:48:10;;;;;;;16.90;15.63;;;9.40;22.30;;;;;;4909606;29;20484;-50
2023/12/17 11:50:45;;;;;;;15.40;14.40;;;9.40;22.20;;;;;;4908284;29;20526;-50
2023/12/17 11:53:15;;;;;;;14.83;13.83;;;9.40;22.30;;;;;;4915743;29;20432;-50
2023/12/17 11:55:46;;;;;;;15.90;14.87;;;9.50;22.50;;;;;;4899437;29;20773;-50
2023/12/17 11:58:15;;;;;;;15.10;14.10;;;9.40;22.20;;;;;;4899575;29;20796;-52
2023/12/17 12:01:00;;;;;;;15.30;14.40;;;9.30;23.30;;;;;;4899620;29;20491;-48
2023/12/17 12:03:27;;;;;;;16.40;15.40;;;9.30;23.50;;;;;;4915260;29;20429;-52
2023/12/17 12:06:03;;;;;;;15.80;14.80;;;9.40;23.10;;;;;;4898921;29;20484;-50
2023/12/17 12:08:34;;;;;;;15.70;14.70;;;9.50;22.80;;;;;;4897306;29;20468;-52
2023/12/17 12:11:02;;;;;;;15.83;14.63;;;9.50;22.70;;;;;;4899421;29;20421;-49
2023/12/17 12:13:31;;;;;;;15.67;14.67;;;9.40;22.90;;;;;;4899226;29;20532;-49
2023/12/17 12:15:58;;;;;;;15.23;14.23;;;9.30;23.10;;;;;;4904116;29;20458;-52
2023/12/17 12:18:24;;;;;;;16.23;15.30;;;9.20;23.00;;;;;;4907869;29;20428;-51
2023/12/17 12:20:50;;;;;;;15.03;14.23;;;9.00;23.70;;;;;;4906357;29;20463;-52
2023/12/17 12:23:15;;;;;;;15.93;14.77;;;9.10;24.20;;;;;;4908806;29;20421;-49
2023/12/17 12:25:41;;;;;;;15.20;14.20;;;9.20;24.30;;;;;;4907662;29;20999;-52
2023/12/17 12:28:19;;;;;;;15.00;14.10;;;9.30;23.50;;;;;;4909172;29;20176;-53
2023/12/17 12:30:45;;;;;;;15.13;14.10;;;9.40;23.50;;;;;;4914790;29;20191;-52